DIJ - Driggs/Reed Meml

Pirep is a free, collaborative database of all public and private airports located within the United States. All pilots are welcome to contribute, edit, and improve any airport they have local knowledge about, no registration required.
Uploaded photos will be licensed under a CC BY-SA 4.0 license. Please only upload photos you have the rights to use.
Tags
Public
Food
Camping
Bicycles
METAR / TAF
Edit Tags
Lodging
Car Rental
Swimming
Golfing
Fishing
Hot Springs
Museum
Flying Clubs
Airpark
Upcoming Events
No upcoming events. Is anything happening here soon?
*
*
*

Where exactly on/near the airport is this event taking place?

Is there a webpage with more information for this event?

Who should be contacted for more information?

What is this event all about?

Repeat every
Description
Last updated: 2023-07-11 19:35:45 MDT
Transient Parking
Fuel Location
Landing & Tie-down Fees
Crew Car Availability
Flying Clubs
WiFi Access
Airport Statistics
Location: Driggs, ID
Elevation: 6,231ft
Sectional: Salt Lake City
Activation date: Mar 1947
Fuel: 100LL, A+ (prices)
Runway 04/22: 7,300ft
Access: Open to the public
Current Weather — VFR
  • Weather data is strictly informational and not for flight planning purposes.
  • METAR
    2024-04-12 09:56:00 MDT
    Ceiling Wind Temperature Dewpoint Weather Visbility
    Sky clear 190° @ 10kt 51°F 26°F N/A 10SM
    Raw: KDIJ 121556Z AUTO 19010KT 10SM CLR 11/M03 A2998 RMK AO2 SLP138 T01061033
  • TAF
    2024-04-12 06:00:00 MDT – 2024-04-12 10:00:00 MDT
    Ceiling Wind Weather Visbility
    8,000ft Variable N/A 6SM
    Clouds: Broken @ 8,000ft
    Raw: KDIJ 121120Z 1212/1312 VRB06KT P6SM BKN080 FM121600 18009KT P6SM SCT070 BKN120 FM121700 20010G20KT P6SM VCSH BKN070 BKN120 FM130200 14006KT P6SM SCT120 AMD LTD TO CLD VIS AND WIND
  • TAF
    2024-04-12 10:00:00 MDT – 2024-04-12 11:00:00 MDT
    Ceiling Wind Weather Visbility
    12,000ft 180° @ 9kt N/A 6SM
    Clouds: Scattered @ 7,000ft, Broken @ 12,000ft
    Raw: KDIJ 121120Z 1212/1312 VRB06KT P6SM BKN080 FM121600 18009KT P6SM SCT070 BKN120 FM121700 20010G20KT P6SM VCSH BKN070 BKN120 FM130200 14006KT P6SM SCT120 AMD LTD TO CLD VIS AND WIND
  • TAF
    2024-04-12 11:00:00 MDT – 2024-04-12 20:00:00 MDT
    Ceiling Wind Weather Visbility
    7,000ft 200° @ 10kt, gusts 20kt Showers in vicinity 6SM
    Clouds: Broken @ 7,000ft, Broken @ 12,000ft
    Raw: KDIJ 121120Z 1212/1312 VRB06KT P6SM BKN080 FM121600 18009KT P6SM SCT070 BKN120 FM121700 20010G20KT P6SM VCSH BKN070 BKN120 FM130200 14006KT P6SM SCT120 AMD LTD TO CLD VIS AND WIND
  • TAF
    2024-04-12 20:00:00 MDT – 2024-04-13 06:00:00 MDT
    Ceiling Wind Weather Visbility
    Sky clear 140° @ 6kt N/A 6SM
    Clouds: Scattered @ 12,000ft
    Raw: KDIJ 121120Z 1212/1312 VRB06KT P6SM BKN080 FM121600 18009KT P6SM SCT070 BKN120 FM121700 20010G20KT P6SM VCSH BKN070 BKN120 FM130200 14006KT P6SM SCT120 AMD LTD TO CLD VIS AND WIND
Click/tap to add an annotation marker to the map
Airport Webcams
No webcams added yet.
Direct links to live image URLs will be displayed inline on this page. URLs to separate webpages will be linked to.
URL:
Direct links to live image URLs will be displayed inline on this page. URLs to separate webpages will be linked to.
URL:
Remarks
  • Estabd prior to 15 may 1959.
  • Sailplane opns heavy during summer months.
  • Fbo phone 208-354-3100.
  • 3000 ft x 150 ft turf ldg area mkd with w cones btn rwy 04/22 and twy ltd to tailwheel acft with wingspan 49 ft or less.
  • For cd ctc salt lake artcc at 801-320-2568.
  • Actvt reil rwy 22 & mirl rwy 04/22 - ctaf. papi rwy 04 & 22 oprs consly.
  • Pwrd acft use r tfc to rwy 22. gld utilize r tfc for rwy 04 and l tfc for 22.
  • Aft hrs call the fbo at 208-354-3100.
Comments
Leave a comment What was your experience like at this airport?